Time;durP1;ratioP1;P1;durP2;ratioP2;P2;SDS_P1;SDS_P2;PMS_P1;PMS_P2;Temp;Humidity;BMP_temperature;BMP_pressure;BME280_temperature;BME280_humidity;BME280_pressure;Samples;Min_cycle;Max_cycle;Signal;HPM_P1;HPM_P2
2021/03/13 00:02:01;;;;;;;4.60;4.35;;;;;;;3.75;42.80;99792.72;5009726;28;98062;-72
2021/03/13 00:04:28;;;;;;;4.60;4.30;;;;;;;3.71;42.82;99793.50;4973162;28;98695;-73
2021/03/13 00:06:55;;;;;;;4.55;4.20;;;;;;;3.65;43.19;99797.63;5009280;27;96838;-72
2021/03/13 00:09:22;;;;;;;4.35;3.92;;;;;;;3.63;43.46;99789.66;4991132;28;97085;-71
2021/03/13 00:11:49;;;;;;;4.68;4.28;;;;;;;3.63;43.39;99768.63;4959520;28;99910;-71
2021/03/13 00:14:16;;;;;;;4.25;4.05;;;;;;;3.59;43.70;99778.97;4976463;28;98523;-71
2021/03/13 00:16:43;;;;;;;5.15;4.70;;;;;;;3.59;43.16;99764.09;4990730;28;96919;-71
2021/03/13 00:19:10;;;;;;;4.20;4.00;;;;;;;3.57;43.31;99776.31;4974435;28;97190;-71
2021/03/13 00:21:37;;;;;;;3.88;3.67;;;;;;;3.57;43.00;99762.28;4971860;28;98507;-71
2021/03/13 00:24:05;;;;;;;4.05;3.80;;;;;;;3.53;43.31;99769.16;4971876;28;97776;-71
2021/03/13 00:26:32;;;;;;;4.25;4.05;;;;;;;3.49;43.22;99764.66;5003395;28;97267;-71
2021/03/13 00:28:59;;;;;;;3.72;3.42;;;;;;;3.50;42.92;99769.06;4972207;28;97374;-71
2021/03/13 00:31:26;;;;;;;3.83;3.70;;;;;;;3.48;43.42;99767.25;4974466;28;98419;-71
2021/03/13 00:33:53;;;;;;;3.63;3.47;;;;;;;3.49;42.85;99762.03;4973001;28;97826;-71
2021/03/13 00:36:20;;;;;;;3.53;3.42;;;;;;;3.48;42.83;99777.75;5008125;28;97314;-71
2021/03/13 00:38:47;;;;;;;3.45;3.30;;;;;;;3.51;43.03;99775.22;4985886;28;97311;-71
2021/03/13 00:41:14;;;;;;;3.88;3.75;;;;;;;3.43;43.23;99776.69;4974133;28;99602;-71
2021/03/13 00:43:41;;;;;;;3.63;3.30;;;;;;;3.41;43.35;99768.75;4973208;28;96760;-71
2021/03/13 00:46:08;;;;;;;3.95;3.75;;;;;;;3.40;43.54;99777.50;4977847;28;96827;-72
2021/03/13 00:48:36;;;;;;;3.58;3.45;;;;;;;3.37;43.49;99782.63;4989828;28;97481;-72
2021/03/13 00:51:04;;;;;;;3.63;3.35;;;;;;;3.38;43.28;99787.06;4974952;28;98624;-72
2021/03/13 00:53:31;;;;;;;5.70;5.22;;;;;;;3.38;42.79;99784.44;4986777;28;100616;-71
2021/03/13 00:55:58;;;;;;;4.28;3.97;;;;;;;3.32;43.46;99773.72;4966052;28;97680;-71
2021/03/13 00:58:30;;;;;;;3.50;3.30;;;;;;;3.31;43.47;99782.44;4973343;28;97543;-71
2021/03/13 01:01:01;;;;;;;4.68;4.28;;;;;;;3.31;43.20;99774.56;5007834;28;97322;-71
2021/03/13 01:03:33;;;;;;;3.95;3.70;;;;;;;3.30;43.47;99764.88;4985734;28;96792;-71
2021/03/13 01:06:01;;;;;;;3.88;3.70;;;;;;;3.30;43.42;99762.25;4958293;28;96974;-71
2021/03/13 01:08:33;;;;;;;3.58;3.42;;;;;;;3.32;42.95;99757.03;4971540;28;96877;-71
2021/03/13 01:11:08;;;;;;;4.00;3.80;;;;;;;3.32;42.80;99749.16;4956296;28;100465;-72
2021/03/13 01:13:41;;;;;;;3.20;3.10;;;;;;;3.28;43.32;99742.91;4988667;28;99220;-72
2021/03/13 01:16:08;;;;;;;3.95;3.60;;;;;;;3.32;43.15;99739.53;4974493;28;96867;-71
2021/03/13 01:18:37;;;;;;;3.50;3.40;;;;;;;3.30;42.80;99746.47;5002972;28;97325;-70
2021/03/13 01:21:07;;;;;;;4.03;3.83;;;;;;;3.31;43.39;99740.38;4971927;28;98669;-71
2021/03/13 01:23:41;;;;;;;4.65;4.35;;;;;;;3.33;43.25;99738.69;4946292;28;97014;-71
2021/03/13 01:26:11;;;;;;;4.57;4.43;;;;;;;3.33;42.85;99738.69;4984008;28;97390;-72
2021/03/13 01:28:38;;;;;;;3.50;3.40;;;;;;;3.33;43.13;99728.16;5002192;27;97698;-71
2021/03/13 01:31:15;;;;;;;3.72;3.42;;;;;;;3.32;42.70;99729.00;4953909;28;98729;-71
2021/03/13 01:33:43;;;;;;;3.30;3.20;;;;;;;3.35;43.32;99723.84;5004230;27;97218;-71
2021/03/13 01:36:11;;;;;;;3.58;3.53;;;;;;;3.40;42.76;99719.66;4993959;28;97556;-71
2021/03/13 01:38:42;;;;;;;3.53;3.42;;;;;;;3.38;42.94;99717.81;4953863;28;97152;-71
2021/03/13 01:41:11;;;;;;;6.78;6.10;;;;;;;3.40;43.15;99714.41;4953330;28;99654;-71
2021/03/13 01:43:39;;;;;;;6.90;5.97;;;;;;;3.41;42.50;99710.00;5007170;27;99729;-71
2021/03/13 01:46:06;;;;;;;29.55;18.15;;;;;;;3.50;42.82;99705.03;4991843;28;96863;-71
2021/03/13 01:48:37;;;;;;;30.42;18.77;;;;;;;3.58;42.96;99703.56;4952307;28;97583;-71
2021/03/13 01:51:09;;;;;;;23.88;15.98;;;;;;;3.62;42.62;99709.00;4972984;28;99547;-72
2021/03/13 01:53:38;;;;;;;32.35;17.98;;;;;;;3.60;42.98;99708.03;4974727;28;98480;-73
2021/03/13 01:56:07;;;;;;;11.93;8.18;;;;;;;3.62;42.23;99706.34;4953417;28;96816;-72
2021/03/13 01:58:37;;;;;;;13.90;9.25;;;;;;;3.66;42.47;99708.25;4953534;28;97396;-73
2021/03/13 02:01:21;;;;;;;5.45;4.82;;;;;;;3.62;42.26;99706.34;4954126;28;97356;-72
2021/03/13 02:03:49;;;;;;;7.78;6.28;;;;;;;3.61;42.42;99707.19;4953237;28;97384;-73
2021/03/13 02:06:16;;;;;;;4.28;4.00;;;;;;;3.64;42.35;99701.13;4951307;28;96899;-73
2021/03/13 02:08:50;;;;;;;4.40;3.65;;;;;;;3.63;42.36;99704.59;4956689;28;96853;-72
2021/03/13 02:11:33;;;;;;;4.20;4.05;;;;;;;3.58;43.33;99693.03;4985116;28;98837;-72
2021/03/13 02:14:07;;;;;;;4.40;4.20;;;;;;;3.55;43.04;99688.56;4985990;28;97926;-73
2021/03/13 02:16:40;;;;;;;3.75;3.63;;;;;;;3.57;42.72;99679.00;4973849;28;97451;-73
2021/03/13 02:19:30;;;;;;;4.43;4.22;;;;;;;3.56;43.52;99685.13;4987394;28;97263;-72
2021/03/13 02:22:01;;;;;;;3.97;3.88;;;;;;;3.61;42.56;99690.50;4956241;28;98709;-72
2021/03/13 02:24:39;;;;;;;5.68;3.70;;;;;;;3.67;43.00;99681.13;4954456;28;96986;-72
2021/03/13 02:27:14;;;;;;;32.47;19.15;;;;;;;3.71;42.52;99676.84;4973898;28;97470;-72
2021/03/13 02:29:55;;;;;;;22.20;14.52;;;;;;;3.76;42.68;99677.88;4967468;28;97264;-72
2021/03/13 02:32:41;;;;;;;23.70;15.13;;;;;;;3.78;42.32;99677.06;4955777;28;96852;-72
2021/03/13 02:35:12;;;;;;;7.88;7.13;;;;;;;3.77;42.33;99669.16;4975397;28;99891;-72
2021/03/13 02:37:41;;;;;;;8.10;6.97;;;;;;;3.79;42.76;99670.94;4952988;28;97288;-71
2021/03/13 02:40:10;;;;;;;11.27;8.55;;;;;;;3.81;42.26;99674.53;4975594;28;97306;-71
2021/03/13 02:42:45;;;;;;;11.60;9.68;;;;;;;3.82;42.50;99663.19;4971030;28;97102;-71
2021/03/13 02:45:15;;;;;;;14.07;10.27;;;;;;;3.87;42.36;99656.31;4972881;28;98122;-72
2021/03/13 02:47:44;;;;;;;10.98;7.20;;;;;;;3.87;42.22;99658.94;4949754;28;96889;-71
2021/03/13 02:50:14;;;;;;;14.70;10.25;;;;;;;3.92;42.49;99651.16;4984877;28;98109;-71
2021/03/13 02:52:53;;;;;;;5.78;5.38;;;;;;;3.92;42.04;99651.16;4984338;28;98185;-71
2021/03/13 02:55:21;;;;;;;7.82;5.88;;;;;;;3.88;42.30;99659.81;4989555;28;96993;-72
2021/03/13 02:57:52;;;;;;;9.75;7.57;;;;;;;3.90;42.60;99659.00;4951551;28;97148;-71
2021/03/13 03:00:22;;;;;;;4.63;4.32;;;;;;;3.90;42.12;99655.47;4967108;28;96797;-74
2021/03/13 03:02:55;;;;;;;5.32;4.93;;;;;;;3.88;42.63;99650.19;4963759;28;100478;-71
2021/03/13 03:05:28;;;;;;;5.95;5.55;;;;;;;3.89;42.16;99646.72;4977719;28;96966;-72
2021/03/13 03:07:56;;;;;;;5.53;5.13;;;;;;;3.95;41.98;99641.63;4961135;28;96960;-71
2021/03/13 03:10:26;;;;;;;5.20;4.93;;;;;;;3.95;42.16;99633.72;4944822;28;97489;-71
2021/03/13 03:12:55;;;;;;;5.43;5.05;;;;;;;3.95;42.03;99640.75;4974546;28;98301;-71
2021/03/13 03:15:25;;;;;;;4.93;4.63;;;;;;;3.96;42.27;99646.03;4959238;28;97434;-71
2021/03/13 03:18:13;;;;;;;5.28;4.75;;;;;;;4.02;42.11;99638.31;4994093;28;96826;-71
2021/03/13 03:20:42;;;;;;;8.15;5.07;;;;;;;4.02;42.56;99630.41;4974287;28;97056;-71
2021/03/13 03:23:11;;;;;;;5.07;4.72;;;;;;;4.04;42.22;99628.72;4944001;28;100217;-71
2021/03/13 03:25:38;;;;;;;5.90;5.40;;;;;;;4.15;42.23;99627.28;4958213;28;96901;-71
2021/03/13 03:28:05;;;;;;;4.35;4.15;;;;;;;4.17;42.26;99630.84;4984833;28;96994;-72
2021/03/13 03:30:47;;;;;;;5.65;5.18;;;;;;;4.22;42.40;99620.47;5015648;28;96740;-73
2021/03/13 03:33:16;;;;;;;6.10;5.55;;;;;;;4.28;41.91;99622.38;4980136;28;97290;-73
2021/03/13 03:35:47;;;;;;;4.55;4.15;;;;;;;4.29;42.20;99619.78;5000534;28;100432;-72
2021/03/13 03:38:18;;;;;;;5.03;4.72;;;;;;;4.32;42.28;99624.25;4994892;28;96937;-72
2021/03/13 03:40:46;;;;;;;5.10;4.68;;;;;;;4.35;41.90;99619.06;4996037;28;97659;-73
2021/03/13 03:43:20;;;;;;;5.25;4.82;;;;;;;4.41;42.17;99619.25;4974555;28;97686;-71
2021/03/13 03:45:51;;;;;;;4.22;4.03;;;;;;;4.47;42.03;99606.22;4973739;28;97847;-73
2021/03/13 03:48:20;;;;;;;4.38;4.07;;;;;;;4.51;42.01;99608.09;4988380;28;96866;-72
2021/03/13 03:50:53;;;;;;;4.50;4.30;;;;;;;4.53;42.02;99602.03;5009847;28;97165;-73
2021/03/13 03:53:31;;;;;;;4.20;4.00;;;;;;;4.57;41.70;99600.34;4957095;28;97992;-70
2021/03/13 03:55:59;;;;;;;4.40;4.20;;;;;;;4.59;41.78;99606.56;5008285;28;98063;-72
2021/03/13 03:58:29;;;;;;;4.38;4.18;;;;;;;4.62;41.82;99604.00;4970827;28;96890;-72
2021/03/13 04:00:58;;;;;;;4.57;4.28;;;;;;;4.62;41.92;99594.34;5003389;27;97191;-73
2021/03/13 04:03:26;;;;;;;4.65;4.25;;;;;;;4.66;41.83;99595.31;4990794;28;98577;-73
2021/03/13 04:05:54;;;;;;;4.95;4.70;;;;;;;4.68;41.75;99593.63;4974629;28;98596;-73
2021/03/13 04:08:22;;;;;;;4.80;4.18;;;;;;;4.69;41.61;99588.38;4988251;28;97079;-73
2021/03/13 04:10:51;;;;;;;4.72;4.32;;;;;;;4.71;41.68;99597.22;4972271;28;97640;-72
2021/03/13 04:13:19;;;;;;;4.72;4.28;;;;;;;4.74;41.56;99589.38;4968740;28;96937;-71
2021/03/13 04:15:47;;;;;;;6.00;5.53;;;;;;;4.71;41.42;99594.59;4975127;28;100383;-73
2021/03/13 04:18:16;;;;;;;4.50;4.30;;;;;;;4.72;41.84;99596.34;4972996;28;97442;-73
2021/03/13 04:20:46;;;;;;;4.40;4.20;;;;;;;4.73;41.88;99586.72;4976224;28;97920;-72
2021/03/13 04:23:13;;;;;;;4.32;4.13;;;;;;;4.75;41.60;99582.38;4985822;28;98613;-73
2021/03/13 04:25:41;;;;;;;4.82;4.28;;;;;;;4.73;41.61;99582.34;5005814;28;98453;-73
2021/03/13 04:28:08;;;;;;;5.20;4.25;;;;;;;4.70;41.75;99584.00;4974328;28;97440;-71
2021/03/13 04:30:35;;;;;;;4.45;4.25;;;;;;;4.65;42.02;99578.63;4977449;28;97762;-71
2021/03/13 04:33:15;;;;;;;4.20;3.90;;;;;;;4.59;42.28;99569.69;4987859;28;99901;-71
2021/03/13 04:35:43;;;;;;;4.63;4.32;;;;;;;4.61;41.86;99575.88;5008029;27;97753;-71
2021/03/13 04:38:10;;;;;;;4.07;3.88;;;;;;;4.61;41.88;99562.72;4971915;28;96901;-71
2021/03/13 04:40:37;;;;;;;4.03;3.83;;;;;;;4.58;41.95;99567.88;4955167;28;98277;-71
2021/03/13 04:43:05;;;;;;;4.32;3.83;;;;;;;4.54;42.26;99568.66;4977497;28;97314;-71
2021/03/13 04:45:33;;;;;;;5.15;4.65;;;;;;;4.53;41.94;99569.50;4972531;28;97983;-71
2021/03/13 04:48:01;;;;;;;3.58;3.47;;;;;;;4.42;42.28;99557.81;4974215;28;97508;-70
2021/03/13 04:50:29;;;;;;;4.00;3.65;;;;;;;4.44;42.16;99554.38;4992123;28;97220;-71
2021/03/13 04:52:56;;;;;;;3.80;3.65;;;;;;;4.44;42.23;99553.47;4990867;28;96927;-74
2021/03/13 04:55:23;;;;;;;4.65;4.35;;;;;;;4.45;41.97;99542.97;4971213;28;98708;-71
2021/03/13 04:57:50;;;;;;;3.80;3.60;;;;;;;4.48;42.14;99542.16;4978845;28;97515;-70
2021/03/13 05:00:18;;;;;;;4.13;4.03;;;;;;;4.47;42.37;99535.09;4958647;28;97093;-73
2021/03/13 05:02:45;;;;;;;4.20;4.00;;;;;;;4.49;42.22;99530.78;4955986;28;99674;-70
2021/03/13 05:05:12;;;;;;;3.83;3.63;;;;;;;4.56;42.15;99530.06;5005213;27;101066;-72
2021/03/13 05:07:59;;;;;;;13.55;7.97;;;;;;;4.62;41.88;99530.22;4974667;28;97542;-72
2021/03/13 05:10:27;;;;;;;40.35;18.27;;;;;;;4.59;41.89;99524.91;4972343;28;96863;-72
2021/03/13 05:12:55;;;;;;;8.52;7.65;;;;;;;4.61;41.88;99518.78;4971498;28;98447;-73
2021/03/13 05:15:23;;;;;;;4.63;4.20;;;;;;;4.63;42.12;99521.47;4975019;28;99765;-71
2021/03/13 05:17:50;;;;;;;4.82;4.53;;;;;;;4.67;41.77;99523.31;4974295;28;96715;-71
2021/03/13 05:20:17;;;;;;;4.32;4.03;;;;;;;4.68;41.66;99510.19;5004387;27;96956;-71
2021/03/13 05:22:46;;;;;;;57.63;23.63;;;;;;;4.70;41.97;99518.16;4975407;28;96988;-73
2021/03/13 05:25:15;;;;;;;8.75;7.57;;;;;;;4.71;41.39;99504.09;4967580;28;99830;-75
2021/03/13 05:27:42;;;;;;;4.85;4.45;;;;;;;4.71;41.74;99501.47;4973703;28;97176;-73
2021/03/13 05:30:10;;;;;;;4.30;3.97;;;;;;;4.78;41.74;99490.22;4970153;28;97282;-71
2021/03/13 05:32:38;;;;;;;4.63;4.43;;;;;;;4.74;41.71;99488.34;4974412;28;97097;-72
2021/03/13 05:35:07;;;;;;;5.25;4.82;;;;;;;4.71;41.96;99488.31;4977580;28;96849;-74
2021/03/13 05:37:34;;;;;;;31.02;14.52;;;;;;;4.76;41.56;99476.13;4978291;28;96826;-73
2021/03/13 05:40:02;;;;;;;15.75;9.63;;;;;;;4.79;41.70;99474.44;4974205;28;97294;-72
2021/03/13 05:42:30;;;;;;;6.32;5.80;;;;;;;4.83;41.61;99470.13;4976765;28;97142;-72
2021/03/13 05:44:58;;;;;;;4.50;4.10;;;;;;;4.73;41.75;99473.41;4971495;28;96860;-73
2021/03/13 05:47:27;;;;;;;4.70;4.45;;;;;;;4.71;42.00;99473.38;4989146;28;96835;-74
2021/03/13 05:49:59;;;;;;;4.70;4.40;;;;;;;4.68;41.80;99468.03;4974585;28;96935;-74
2021/03/13 05:52:31;;;;;;;4.93;4.63;;;;;;;4.67;41.91;99465.34;4952703;28;99477;-73
2021/03/13 05:54:59;;;;;;;5.65;5.25;;;;;;;4.64;42.24;99460.03;4990227;28;98449;-76
2021/03/13 05:57:27;;;;;;;5.55;5.15;;;;;;;4.65;42.24;99451.25;4972674;28;97310;-76
2021/03/13 05:59:55;;;;;;;5.50;5.10;;;;;;;4.69;42.21;99445.22;5001509;28;96970;-73
2021/03/13 06:02:22;;;;;;;15.55;10.38;;;;;;;4.64;42.43;99447.75;4973793;28;97017;-72
2021/03/13 06:04:50;;;;;;;7.55;6.85;;;;;;;4.64;42.45;99441.59;4972157;28;96976;-75
2021/03/13 06:07:19;;;;;;;6.00;5.65;;;;;;;4.67;42.46;99433.75;4973466;28;97329;-73
2021/03/13 06:09:46;;;;;;;5.50;5.20;;;;;;;4.68;42.20;99430.28;4988165;28;97374;-73
2021/03/13 06:12:13;;;;;;;5.25;4.95;;;;;;;4.66;42.64;99424.97;4971306;28;99700;-73
2021/03/13 06:14:41;;;;;;;5.50;5.10;;;;;;;4.66;42.43;99417.06;4970587;28;99695;-73
2021/03/13 06:17:09;;;;;;;6.03;5.63;;;;;;;4.70;42.59;99415.41;4972969;28;97454;-74
2021/03/13 06:19:54;;;;;;;5.53;5.03;;;;;;;4.79;42.91;99412.97;4955563;28;97409;-74
2021/03/13 06:22:36;;;;;;;4.88;4.57;;;;;;;4.81;43.46;99403.34;4971097;28;96882;-74
2021/03/13 06:25:23;;;;;;;6.03;5.53;;;;;;;4.87;42.88;99400.81;4973144;28;98493;-73
2021/03/13 06:28:00;;;;;;;6.25;5.70;;;;;;;4.94;42.58;99397.47;4973208;28;96914;-72
2021/03/13 06:30:29;;;;;;;6.22;5.75;;;;;;;4.98;42.39;99389.66;4973542;28;96795;-72
2021/03/13 06:32:57;;;;;;;5.60;5.10;;;;;;;5.06;42.30;99384.59;5005204;27;97103;-73
2021/03/13 06:35:26;;;;;;;7.68;5.93;;;;;;;5.06;42.36;99369.66;4972189;28;97151;-73
2021/03/13 06:37:55;;;;;;;5.75;5.28;;;;;;;5.08;42.14;99373.22;4970350;28;96898;-73
2021/03/13 06:40:30;;;;;;;8.13;5.25;;;;;;;5.13;42.43;99368.94;4970922;28;97263;-74
2021/03/13 06:42:58;;;;;;;10.50;9.48;;;;;;;5.17;42.29;99357.56;4971144;28;97694;-75
2021/03/13 06:45:25;;;;;;;34.70;18.15;;;;;;;5.18;42.04;99362.00;4971438;28;97338;-76
2021/03/13 06:47:52;;;;;;;11.75;8.48;;;;;;;5.21;42.21;99356.78;4987653;28;97612;-74
2021/03/13 06:50:38;;;;;;;11.82;9.13;;;;;;;5.25;42.10;99349.81;4972323;28;97108;-72
2021/03/13 06:53:08;;;;;;;8.18;7.35;;;;;;;5.24;42.18;99345.41;4970489;28;97365;-75
2021/03/13 06:55:37;;;;;;;7.18;6.55;;;;;;;5.29;42.30;99342.84;4982574;28;97448;-75
2021/03/13 06:58:09;;;;;;;5.88;5.38;;;;;;;5.29;42.14;99341.13;4987815;28;97312;-72
2021/03/13 07:00:40;;;;;;;5.72;5.32;;;;;;;5.29;42.25;99334.94;4970442;28;96966;-73
2021/03/13 07:03:09;;;;;;;5.05;4.72;;;;;;;5.23;42.45;99341.88;4969458;28;98504;-72
2021/03/13 07:05:38;;;;;;;8.48;7.35;;;;;;;5.22;42.13;99341.84;4969506;28;98405;-71
2021/03/13 07:08:22;;;;;;;8.00;7.20;;;;;;;5.22;42.88;99326.03;4980610;28;97308;-74
2021/03/13 07:10:49;;;;;;;7.95;6.63;;;;;;;5.21;42.38;99314.59;5004330;28;96875;-73
2021/03/13 07:13:35;;;;;;;5.55;5.15;;;;;;;5.22;42.69;99315.50;5006249;28;98315;-71
2021/03/13 07:16:23;;;;;;;5.40;5.00;;;;;;;5.26;42.80;99298.88;4972397;28;99801;-73
2021/03/13 07:18:51;;;;;;;5.35;5.05;;;;;;;5.26;42.38;99300.63;5013327;27;96875;-71
2021/03/13 07:21:20;;;;;;;5.47;5.07;;;;;;;5.28;42.30;99298.91;5004484;28;96957;-71
2021/03/13 07:23:50;;;;;;;4.75;4.45;;;;;;;5.34;42.17;99302.53;4960885;28;97818;-71
2021/03/13 07:26:17;;;;;;;5.50;5.05;;;;;;;5.34;42.35;99299.03;4969518;28;97970;-71
2021/03/13 07:28:44;;;;;;;5.15;4.75;;;;;;;5.35;42.23;99290.22;4972307;28;97333;-70
2021/03/13 07:31:12;;;;;;;5.22;4.82;;;;;;;5.37;42.37;99283.25;4948909;28;97411;-71
2021/03/13 07:33:40;;;;;;;6.20;5.32;;;;;;;5.36;42.37;99278.84;4986777;28;98458;-72
2021/03/13 07:36:10;;;;;;;33.33;15.15;;;;;;;5.36;42.32;99274.44;4976343;28;98097;-71
2021/03/13 07:38:39;;;;;;;12.25;8.48;;;;;;;5.40;42.23;99272.72;4972861;28;96802;-73
2021/03/13 07:41:09;;;;;;;6.05;5.47;;;;;;;5.37;42.24;99268.31;4976070;28;96899;-73
2021/03/13 07:43:38;;;;;;;5.82;5.15;;;;;;;5.40;42.32;99263.09;4988405;28;98526;-72
2021/03/13 07:46:08;;;;;;;5.97;5.47;;;;;;;5.45;42.44;99256.13;4956679;28;98153;-72
2021/03/13 07:48:36;;;;;;;5.80;5.40;;;;;;;5.47;42.29;99246.50;4975010;28;96805;-75
2021/03/13 07:51:20;;;;;;;9.55;6.95;;;;;;;5.47;42.50;99240.31;4988408;28;96910;-73
2021/03/13 07:53:48;;;;;;;7.90;7.20;;;;;;;5.55;42.25;99228.16;4951636;28;97811;-74
2021/03/13 07:56:17;;;;;;;7.07;6.22;;;;;;;5.60;42.15;99219.47;4937973;28;97192;-72
2021/03/13 07:58:44;;;;;;;5.47;4.95;;;;;;;5.64;42.18;99216.00;4990629;28;97439;-74
2021/03/13 08:01:12;;;;;;;5.47;4.97;;;;;;;5.64;42.09;99201.91;4970948;28;97284;-75
2021/03/13 08:03:44;;;;;;;6.15;4.80;;;;;;;5.61;42.15;99197.47;4967527;28;97825;-75
2021/03/13 08:06:12;;;;;;;4.88;4.57;;;;;;;5.64;42.35;99194.00;4965374;28;98719;-72
2021/03/13 08:08:41;;;;;;;11.90;10.50;;;;;;;5.67;42.15;99187.03;4991012;28;97276;-74
2021/03/13 08:11:11;;;;;;;10.65;9.55;;;;;;;5.69;42.18;99187.94;4952341;28;97657;-75
2021/03/13 08:13:55;;;;;;;6.75;6.13;;;;;;;5.77;42.48;99173.13;5007014;27;97489;-73
2021/03/13 08:16:35;;;;;;;8.82;7.35;;;;;;;5.83;42.55;99167.91;4974530;28;97878;-74
2021/03/13 08:19:04;;;;;;;8.77;7.70;;;;;;;5.90;42.16;99164.47;4982113;28;96901;-72
2021/03/13 08:21:42;;;;;;;7.90;7.20;;;;;;;5.95;42.36;99157.53;4972972;28;97223;-72
2021/03/13 08:24:11;;;;;;;6.45;5.55;;;;;;;6.02;41.97;99151.47;4957261;28;100035;-75
2021/03/13 08:27:06;;;;;;;15.60;11.68;;;;;;;6.10;42.74;99148.94;4971732;28;99080;-73
2021/03/13 08:29:47;;;;;;;13.07;9.05;;;;;;;6.13;42.35;99128.72;4970378;28;96919;-73
2021/03/13 08:32:14;;;;;;;4.78;4.32;;;;;;;6.19;41.84;99135.84;4971380;28;97470;-74
2021/03/13 08:34:43;;;;;;;4.03;3.83;;;;;;;6.14;41.65;99122.56;4971542;28;97987;-74
2021/03/13 08:37:22;;;;;;;4.38;4.10;;;;;;;6.21;42.00;99108.56;4971616;28;98886;-75
2021/03/13 08:39:53;;;;;;;3.60;3.50;;;;;;;6.24;41.93;99110.38;4994522;28;96867;-73
2021/03/13 08:42:32;;;;;;;3.95;3.75;;;;;;;6.32;42.30;99102.56;4969122;28;97022;-72
2021/03/13 08:45:15;;;;;;;4.70;4.32;;;;;;;6.30;43.27;99102.56;4949319;28;98621;-73
2021/03/13 08:47:44;;;;;;;3.67;3.50;;;;;;;6.27;41.76;99099.88;4963843;28;98480;-74
2021/03/13 08:50:11;;;;;;;4.22;3.97;;;;;;;6.31;41.66;99084.94;4966596;28;96663;-75
2021/03/13 08:52:38;;;;;;;7.40;6.72;;;;;;;6.28;42.06;99092.84;4953362;28;97099;-75
2021/03/13 08:55:06;;;;;;;3.35;3.05;;;;;;;6.28;41.82;99084.91;4967280;28;98800;-73
2021/03/13 08:57:44;;;;;;;3.70;3.50;;;;;;;6.31;42.55;99069.09;4969547;28;97210;-74
2021/03/13 09:00:18;;;;;;;3.35;3.15;;;;;;;6.34;42.11;99059.47;4968443;28;97763;-74
2021/03/13 09:02:47;;;;;;;4.47;4.15;;;;;;;6.43;41.90;99058.66;4984332;28;97383;-71
2021/03/13 09:05:20;;;;;;;14.10;9.63;;;;;;;6.49;41.78;99053.47;4966531;28;98385;-75
2021/03/13 09:07:49;;;;;;;3.75;3.55;;;;;;;6.54;41.80;99038.53;4986939;28;98292;-73
2021/03/13 09:10:17;;;;;;;3.25;3.15;;;;;;;6.51;42.14;99041.13;4951926;28;96785;-74
2021/03/13 09:12:46;;;;;;;3.10;3.00;;;;;;;6.50;42.06;99031.44;4952155;28;96907;-75
2021/03/13 09:15:15;;;;;;;2.90;2.70;;;;;;;6.54;41.71;99028.84;4970098;28;97849;-73
2021/03/13 09:17:42;;;;;;;3.17;3.05;;;;;;;6.57;41.59;99025.31;4965371;28;98190;-73
2021/03/13 09:20:12;;;;;;;2.80;2.80;;;;;;;6.61;41.68;99013.94;4959965;28;97602;-73
2021/03/13 09:22:41;;;;;;;2.97;2.88;;;;;;;6.65;41.37;99019.22;4975614;28;97121;-72
2021/03/13 09:25:11;;;;;;;2.95;2.85;;;;;;;6.67;41.82;99008.69;4975766;28;98457;-72
2021/03/13 09:27:38;;;;;;;4.40;4.10;;;;;;;6.72;41.32;98999.94;5005551;27;99976;-72
2021/03/13 09:30:09;;;;;;;4.45;4.15;;;;;;;6.72;41.63;99001.69;5008315;28;96482;-72
2021/03/13 09:32:41;;;;;;;5.03;4.07;;;;;;;6.76;41.68;98995.56;4971840;28;97508;-74
2021/03/13 09:35:10;;;;;;;2.50;2.40;;;;;;;6.78;41.90;98980.59;4980414;28;98581;-72
2021/03/13 09:37:37;;;;;;;3.15;2.95;;;;;;;6.78;41.91;98984.09;4973312;28;97766;-74
2021/03/13 09:40:07;;;;;;;2.83;2.75;;;;;;;6.80;41.62;98992.03;5001623;28;97460;-74
2021/03/13 09:42:34;;;;;;;2.78;2.78;;;;;;;6.83;41.75;98985.06;4978214;28;98848;-72
2021/03/13 09:45:04;;;;;;;2.53;2.50;;;;;;;6.83;41.47;98987.69;4961097;28;99025;-72
2021/03/13 09:47:33;;;;;;;2.58;2.58;;;;;;;6.81;42.25;98978.88;4977791;28;98794;-73
2021/03/13 09:50:03;;;;;;;2.80;2.70;;;;;;;6.90;41.77;98970.09;4966464;28;96921;-75
2021/03/13 09:52:31;;;;;;;2.50;2.50;;;;;;;6.87;41.79;98963.03;4962176;28;97056;-74
2021/03/13 09:55:03;;;;;;;2.40;2.40;;;;;;;6.86;41.67;98963.91;5002907;27;97131;-74
2021/03/13 09:57:30;;;;;;;2.83;2.78;;;;;;;6.88;41.73;98953.34;4964343;28;98376;-73
2021/03/13 09:59:57;;;;;;;2.60;2.50;;;;;;;6.89;41.80;98957.78;4998635;27;96881;-74
2021/03/13 10:02:25;;;;;;;2.67;2.47;;;;;;;6.95;41.70;98949.84;4985680;28;96993;-72
2021/03/13 10:04:54;;;;;;;2.47;2.47;;;;;;;6.97;41.80;98948.09;4939516;28;97866;-74
2021/03/13 10:07:28;;;;;;;2.67;2.67;;;;;;;6.96;42.09;98946.34;4995544;28;100184;-73
2021/03/13 10:09:57;;;;;;;2.55;2.45;;;;;;;7.06;41.93;98937.59;4968972;28;97476;-74
2021/03/13 10:12:26;;;;;;;2.95;2.75;;;;;;;7.05;41.96;98936.69;4967585;28;97357;-72
2021/03/13 10:14:53;;;;;;;2.60;2.40;;;;;;;7.11;41.57;98930.56;4956233;28;98956;-73
2021/03/13 10:17:21;;;;;;;2.63;2.42;;;;;;;7.17;41.54;98927.94;4953416;28;98905;-75
2021/03/13 10:19:49;;;;;;;2.60;2.60;;;;;;;7.23;41.23;98920.94;4956735;28;96929;-73
2021/03/13 10:22:22;;;;;;;2.67;2.63;;;;;;;7.34;41.45;98912.16;4956453;28;97468;-75
2021/03/13 10:24:52;;;;;;;2.22;2.20;;;;;;;7.43;40.98;98902.53;4979074;28;99221;-76
2021/03/13 10:27:22;;;;;;;2.40;2.30;;;;;;;7.56;41.10;98899.06;4977755;28;99481;-73
2021/03/13 10:29:57;;;;;;;2.38;2.20;;;;;;;7.61;41.21;98889.38;4949781;28;97442;-73
2021/03/13 10:32:26;;;;;;;2.30;2.30;;;;;;;7.72;40.71;98878.81;4962278;28;97045;-76
2021/03/13 10:35:16;;;;;;;2.20;2.20;;;;;;;7.82;41.54;98907.94;5000479;28;100376;-75
2021/03/13 10:37:52;;;;;;;2.40;2.30;;;;;;;7.95;40.63;98880.59;4973886;28;97067;-75
2021/03/13 10:40:31;;;;;;;2.58;2.47;;;;;;;7.91;40.77;98873.53;5006097;27;97200;-74
2021/03/13 10:43:16;;;;;;;2.22;2.22;;;;;;;8.01;40.99;98871.78;4975887;28;97450;-73
2021/03/13 10:45:45;;;;;;;2.60;2.50;;;;;;;8.16;40.13;98861.22;4973441;28;97764;-73
2021/03/13 10:48:13;;;;;;;2.50;2.40;;;;;;;8.20;40.08;98871.78;4975955;28;98876;-74
2021/03/13 10:50:43;;;;;;;2.25;2.10;;;;;;;8.24;39.83;98876.22;4974330;28;96862;-74
2021/03/13 10:53:27;;;;;;;2.30;2.20;;;;;;;8.29;40.06;98864.72;4978029;28;97403;-72
2021/03/13 10:55:55;;;;;;;2.17;2.10;;;;;;;8.29;40.03;98856.78;4974001;28;97770;-73
2021/03/13 10:58:23;;;;;;;2.58;2.47;;;;;;;8.39;40.13;98856.78;5005478;27;97805;-74
2021/03/13 11:00:50;;;;;;;2.20;2.20;;;;;;;8.52;39.75;98858.56;5003708;28;97381;-74
2021/03/13 11:03:17;;;;;;;2.15;2.10;;;;;;;8.60;39.78;98855.91;4974017;28;97313;-73
2021/03/13 11:05:47;;;;;;;2.13;2.13;;;;;;;8.65;39.49;98867.38;4988026;28;99531;-74
2021/03/13 11:08:15;;;;;;;2.00;2.00;;;;;;;8.67;39.49;98839.09;4971725;28;97564;-74
2021/03/13 11:10:43;;;;;;;1.95;1.95;;;;;;;8.61;39.40;98842.63;4972006;28;98132;-73
2021/03/13 11:13:10;;;;;;;2.70;2.60;;;;;;;8.65;39.49;98839.09;4975001;28;97222;-74
2021/03/13 11:15:37;;;;;;;2.35;2.30;;;;;;;8.60;39.68;98846.19;4969162;28;97685;-74
2021/03/13 11:18:05;;;;;;;2.10;2.10;;;;;;;8.66;39.57;98842.66;4953086;28;100806;-72
2021/03/13 11:20:33;;;;;;;2.20;2.13;;;;;;;8.67;39.48;98840.00;4968790;28;97482;-75
2021/03/13 11:23:00;;;;;;;2.20;2.10;;;;;;;8.74;39.67;98824.94;5006303;28;96870;-74
2021/03/13 11:25:27;;;;;;;2.20;2.20;;;;;;;8.79;39.58;98813.44;4988666;28;99432;-73
2021/03/13 11:27:55;;;;;;;1.83;1.83;;;;;;;8.86;39.49;98809.00;4994723;28;99246;-72
2021/03/13 11:30:23;;;;;;;1.80;1.80;;;;;;;8.77;39.50;98831.09;4962702;28;96980;-73
2021/03/13 11:32:50;;;;;;;2.10;2.10;;;;;;;8.78;39.55;98806.38;4953022;28;97563;-74
2021/03/13 11:35:18;;;;;;;2.30;2.20;;;;;;;8.79;39.58;98844.34;4963260;28;99379;-71
2021/03/13 11:37:46;;;;;;;2.10;2.00;;;;;;;8.66;39.84;98805.53;4951840;28;100053;-71
2021/03/13 11:40:14;;;;;;;1.92;1.92;;;;;;;8.74;39.59;98835.53;4974068;28;97221;-72
2021/03/13 11:42:41;;;;;;;2.20;2.17;;;;;;;8.65;39.66;98830.25;4959626;28;96802;-74
2021/03/13 11:45:10;;;;;;;2.17;2.17;;;;;;;8.33;53.90;98853.25;4956098;28;99838;-74
2021/03/13 11:47:37;;;;;;;2.28;2.17;;;;;;;7.59;54.73;98900.81;4961925;28;98809;-72
2021/03/13 11:50:07;;;;;;;2.22;2.22;;;;;;;6.81;56.28;98894.28;4981502;28;97589;-73
2021/03/13 11:52:34;;;;;;;2.20;2.20;;;;;;;6.48;54.34;98883.47;4955496;28;97282;-74
2021/03/13 11:55:03;;;;;;;2.25;2.15;;;;;;;6.34;52.27;98881.59;4982003;28;98958;-73